Marek Kucka

Olheiro-Chefe - DAC Dunajska Streda
23 Abr 2028
Domingo
Processo

Personalidade

Adaptabilidade (12) Ambição (10) Controvérsia (11) Lealdade (3) Pressão (18) Profissionalismo (4) Espírito Esportivo (6) Temperamento (5)

Perfil

Estilo de Treinamento Democrático
Licença Continental A
Determinação 5
Gestão de Pessoas 10
Motivação 10
Disciplina 12
Satisfação no Trabalho
100%
Fadiga
0%
Função Olheiro-Chefe
Salário 62.6K p/s
Contrato 14.03.2030

Desempenho

Comportamento Bom
Eficácia do Treinamento
45%
Desenvolvimento do Jogador
50%
Prevenção de Lesões
25%
Implementação Tática
30%

Eventos Recentes

Avaliou um jogador agora
Participou de uma reunião de recrutamento agora
Participou de uma reunião de recrutamento agora
Recomendou um alvo de transferência agora
Recomendou um alvo de transferência agora
Recomendou um alvo de transferência agora
Avaliou um jogador agora
Avaliou um jogador agora

Monitorando agora

99
Jogador Clube Status Habilidade Confiança Observado Última observação Último voto
Musa Danjuma Umraniyespor Ativo 109 / 103 40% 1 22.04.2028 -
Trey Nyoni Rotherham United Ativo 141 / 148 40% 1 22.04.2028 -
Martim Cunha Porto Ativo 111 / 109 40% 4 21.04.2028 -
Khalis Merah Olympique Lyonnais Ativo 137 / 142 40% 1 21.04.2028 -
Itumeleng Jali Spezia Ativo 124 / 120 40% 1 20.04.2028 -
Artem Nosachev Spartak Moscow Ativo 70 / 90 40% 1 20.04.2028 -
Germán Barbas Burgos Ativo 117 / 118 40% 2 18.04.2028 -
Dmitry Pestryakov Krasnodar Ativo 126 / 125 40% 3 17.04.2028 -
Kamaldeen Atiemo Wa All Stars Ativo 98 / 96 40% 1 17.04.2028 -
Jorthy Mokio ADO Den Haag Ativo 134 / 142 40% 2 12.04.2028 -
Bernardo Lima Porto Ativo 112 / 119 40% 1 12.04.2028 -
Riquelme Thompson-Jones Accrington Stanley Ativo 108 / 113 40% 1 11.04.2028 -
Dmytro Strilchuk Podillia Ativo 86 / 84 40% 1 10.04.2028 -
Matvey Bardachev Zenit Ativo 99 / 119 40% 1 10.04.2028 -
Giovanni Leoni Lincoln City Ativo 142 / 140 40% 2 09.04.2028 -
Andrea Cogoni Cosenza Ativo 112 / 108 40% 1 07.04.2028 -
Miguel Figueiredo Benfica Ativo 111 / 133 40% 2 06.04.2028 -
Jamie Wähling Hibernians Ativo 94 / 94 40% 1 06.04.2028 -
Salvador Blopá Sporting CP Ativo 119 / 127 40% 1 03.04.2028 -
Kiani Inge Groningen Ativo 109 / 125 40% 1 07.03.2028 -
Andrey Ivlev Nizhniy Novgorod Ativo 121 / 115 40% 1 07.03.2028 -
Chris Rigg Sunderland Ativo 127 / 139 40% 1 26.01.2028 -
Nazareno Roselli Defensa y Justicia Ativo 112 / 127 40% 1 26.01.2028 -
Dániel Pintér Inter Miami CF Perdido 93 / 97 40% 2 04.01.2028 -
Lamin Sillah Exeter City Ativo 106 / 106 40% 1 04.01.2028 -
Ilja Zhbanov Cobresal Negociando 90 / 94 66% 1 01.01.2028 Aprovar
Abdullahi Mohammad Kwara United Ativo 76 / 82 40% 1 01.01.2028 -
Brian Farioli Estudiantes Ativo 106 / 114 40% 2 14.12.2027 -
José Barreto Quilmes Ativo 111 / 107 40% 1 14.12.2027 -
Marcio Gómez Racing Ativo 109 / 111 40% 2 13.12.2027 -
Matías Bazzi Talleres Ativo 113 / 108 40% 3 11.12.2027 -
Pedro Souto Temperley Ativo 102 / 122 40% 1 11.12.2027 -
Gabriel Díaz Patronato Ativo 124 / 114 40% 6 10.12.2027 -
Juan Esteban Ávalo Aguilas Doradas Ativo 110 / 112 40% 3 08.12.2027 -
Facundo Altamira Godoy Cruz Ativo 139 / 128 40% 1 07.12.2027 -
Fernando Rodríguez Almirante Brown Ativo 109 / 101 40% 2 06.12.2027 -
Gianluca Pugliese Güemes Ativo 98 / 111 40% 2 06.12.2027 -
Valentín Serrano Arsenal Ativo 99 / 108 40% 1 06.12.2027 -
Bruno Palazzo Nueva Chicago Ativo 112 / 119 40% 3 04.12.2027 -
Gastón Togni Defensa y Justicia Ativo 124 / 117 40% 2 04.12.2027 -
Rodrigo González Mitre Ativo 134 / 110 40% 1 04.12.2027 -
Franco Vedoya Central Norte Ativo 102 / 109 40% 2 02.12.2027 -
Julián Cosi Madryn Ativo 108 / 117 40% 1 01.12.2027 -
Nino Marcelli Slovan Bratislava Ativo 132 / 122 40% 3 30.11.2027 -
Fabián Suárez Chalares Aguilas Doradas Ativo 128 / 115 40% 1 29.11.2027 -
Alejo Dramisino Atlanta Ativo 122 / 127 40% 1 28.11.2027 -
Federico Versaci Talleres Ativo 128 / 116 40% 1 26.11.2027 -
Adalberto Peñaranda Deportivo Tachira Ativo 105 / 110 40% 1 26.11.2027 -
Nicolás Retamar Ferro Carril Oeste Ativo 135 / 119 40% 1 25.11.2027 -
Oscar Garrido Mitre Ativo 112 / 107 40% 1 25.11.2027 -
Alejo Tabares All Boys Ativo 116 / 106 40% 1 25.11.2027 -
Tiago Ferreyra Mitre Ativo 100 / 114 40% 1 25.11.2027 -
Francisco Facello Chacarita Juniors Ativo 113 / 123 40% 2 23.11.2027 -
Alex Luna Instituto Ativo 120 / 141 40% 1 23.11.2027 -
Nicolás Fernández Maipú Ativo 118 / 111 40% 1 22.11.2027 -
Jefry Zapata Aldosivi Ativo 111 / 122 40% 1 19.11.2027 -
Braian Aranda Agropecuario Argentino Ativo 98 / 121 40% 2 16.11.2027 -
Tomás Ferreyra Defensores Unidos Ativo 104 / 112 40% 1 11.11.2027 -
Misael Tarón Ferro Carril Oeste Ativo 117 / 101 40% 2 10.11.2027 -
Ismael Cortez Gimnasia y Esgrima Ativo 103 / 114 40% 1 09.11.2027 -
Delvin Alfonzo Deportivo Tachira Ativo 130 / 110 40% 1 09.11.2027 -
Tomás Porra Barracas Central Ativo 109 / 129 40% 1 05.11.2027 -
Leandro Lucero Temperley Ativo 108 / 117 40% 1 03.11.2027 -
Samuel Lucero Defensa y Justicia Ativo 107 / 115 40% 1 02.11.2027 -
Camilo Alessandria Godoy Cruz Ativo 117 / 111 40% 1 02.11.2027 -
Willy Kumado San Diego Football Club Ativo 110 / 109 40% 1 08.10.2027 -
Abraham Bahachille Carabobo Ativo 107 / 104 40% 1 05.10.2027 -
Bruno Leyes Godoy Cruz Ativo 123 / 136 40% 1 05.10.2027 -
Tomás Castro Ponce Atlanta Ativo 109 / 116 40% 1 04.10.2027 -
Franco Camargo Gimnasia y Esgrima Ativo 127 / 98 40% 1 14.09.2027 -
Fernando Savarino Llaneros Ativo 117 / 104 40% 1 12.09.2027 -
Kabiru Abdullahi Barau Ativo 88 / 98 40% 1 19.08.2027 -
Yastin Cuevas Huachipato Ativo 98 / 111 40% 1 19.08.2027 -
Luighi Palmeiras Ativo 99 / 120 40% 1 18.08.2027 -
Godbless Ayeke AS Bakaridjan Ativo 70 / 73 40% 1 18.08.2027 -
Bosun Lawal Stoke City Ativo 134 / 133 40% 1 09.08.2027 -
Kristoffer Lund Birmingham Ativo 135 / 134 40% 1 09.08.2027 -
Ben Ahmed Kohili Paradou Ativo 114 / 109 40% 1 21.06.2027 -
Matej Poplatnik Negociando 113 / 113 66% 1 01.06.2027 Aprovar
Luciano Gondou Chelsea Ativo 127 / 128 67% 1 01.06.2027 Aprovar
Maicon Levski Ativo 127 / 120 40% 1 31.12.2026 -
Peter Valjent FK Senica Ativo 108 / 109 55% 3 29.12.2026 Observar
Maks Ebong CSKA Sofia Ativo 112 / 115 40% 1 28.12.2026 -
Aleksa Janković Sumgayit Ativo 111 / 122 40% 1 28.12.2026 -
Thomas Carrique Andorra Ativo 122 / 120 40% 2 27.12.2026 -
Tyrhys Dolan Espanyol Ativo 129 / 135 40% 1 26.12.2026 -
Rahim Ibrahim Slovan Bratislava Ativo 132 / 120 40% 2 19.12.2026 -
Peter Kováčik Podbrezova Ativo 120 / 103 40% 1 16.12.2026 -
Oguzhan Omur Khazar Ativo 103 / 116 40% 1 15.12.2026 -
Rivaldo Mkhize Black Aces Ativo 71 / 76 40% 1 14.12.2026 -
Lebogang Manyama SuperSport United Ativo 94 / 100 40% 1 12.12.2026 -
David Ozoh Derby County Ativo 114 / 123 40% 1 12.12.2026 -
Louis Leroux FC Nantes Ativo 122 / 134 40% 1 10.12.2026 -
Roman Dixon Walsall Ativo 100 / 110 40% 1 05.11.2026 -
Bongani Jali Free State Stars Ativo 79 / 88 40% 2 04.11.2026 -
Maeson King Hull City Ativo 107 / 117 40% 1 07.09.2026 -
Tobías Ganduglia Independiente Rivadavia Ativo 75 / 83 40% 1 24.08.2026 -
Santiago Villareal Gimnasia La Plata Ativo 85 / 96 40% 1 18.08.2026 -
Giorgio Costantini River Plate Ativo 97 / 102 40% 1 18.08.2026 -